Time,TemperatureF,DewpointF,PressureIn,WindDirection,WindDirectionDegrees,WindSpeedMPH,WindSpeedGustMPH,Humidity,HourlyPrecipIn,Conditions,Clouds,dailyrainin,SoftwareType,DateUTC
2013-03-11 08:00:00,44.4,29.7,30.08,SSE,168,2.0,2.0,56,0.00,,,0.00,Wunderground v.1.15,2013-03-11 12:00:00,
2013-03-11 08:05:00,44.4,30.1,30.08,East,84,3.0,3.0,57,0.00,,,0.00,Wunderground v.1.15,2013-03-11 12:05:00,
2013-03-11 08:10:00,44.5,30.2,30.08,ESE,117,2.0,2.0,57,0.00,,,0.00,Wunderground v.1.15,2013-03-11 12:10:00,
2013-03-11 08:15:00,44.5,30.2,30.08,SSW,201,2.0,2.0,57,0.00,,,0.00,Wunderground v.1.15,2013-03-11 12:15:00,
2013-03-11 08:20:00,44.6,30.3,30.08,SE,139,2.0,4.0,57,0.00,,,0.00,Wunderground v.1.15,2013-03-11 12:20:00,
2013-03-11 08:30:00,44.5,30.6,30.08,SE,124,3.0,3.0,58,0.00,,,0.00,Wunderground v.1.15,2013-03-11 12:30:00,
2013-03-11 08:35:00,44.4,30.5,30.09,NNE,18,2.0,3.0,58,0.00,,,0.00,Wunderground v.1.15,2013-03-11 12:35:00,
2013-03-11 08:40:00,44.4,31.0,30.08,NE,50,2.0,5.0,59,0.00,,,0.00,Wunderground v.1.15,2013-03-11 12:40:00,
2013-03-11 08:45:00,44.5,31.1,30.08,ESE,112,2.0,5.0,59,0.00,,,0.00,Wunderground v.1.15,2013-03-11 12:45:00,
2013-03-11 08:50:00,44.5,31.5,30.08,SW,229,2.0,5.0,60,0.00,,,0.00,Wunderground v.1.15,2013-03-11 12:50:00,
2013-03-11 09:00:00,44.6,31.1,30.08,SE,142,2.0,2.0,59,0.00,,,0.00,Wunderground v.1.15,2013-03-11 13:00:00,
2013-03-11 09:10:00,44.7,31.7,30.08,South,172,1.0,1.0,60,0.00,,,0.00,Wunderground v.1.15,2013-03-11 13:10:00,
2013-03-11 09:15:00,44.8,31.8,30.08,NNW,342,2.0,2.0,60,0.00,,,0.00,Wunderground v.1.15,2013-03-11 13:15:00,
2013-03-11 09:25:00,44.9,31.8,30.08,NNW,345,2.0,2.0,60,0.00,,,0.00,Wunderground v.1.15,2013-03-11 13:25:00,
2013-03-11 09:30:00,45.0,32.3,30.09,NNE,27,2.0,2.0,61,0.00,,,0.00,Wunderground v.1.15,2013-03-11 13:30:00,
2013-03-11 09:40:00,45.2,32.1,30.08,NW,321,2.0,3.0,60,0.00,,,0.00,Wunderground v.1.15,2013-03-11 13:40:00,
2013-03-11 09:45:00,45.4,32.3,30.08,WNW,302,2.0,3.0,60,0.00,,,0.00,Wunderground v.1.15,2013-03-11 13:45:00,
2013-03-11 09:55:00,45.8,32.7,30.08,NNW,330,1.0,2.0,60,0.00,,,0.00,Wunderground v.1.15,2013-03-11 13:55:00,
2013-03-11 10:00:00,46.1,32.6,30.08,WNW,300,1.0,4.0,59,0.00,,,0.00,Wunderground v.1.15,2013-03-11 14:00:00,
2013-03-11 10:10:00,46.5,32.5,30.07,ESE,105,2.0,2.0,58,0.00,,,0.00,Wunderground v.1.15,2013-03-11 14:10:00,
2013-03-11 10:15:00,46.6,32.6,30.07,ENE,76,2.0,2.0,58,0.00,,,0.00,Wunderground v.1.15,2013-03-11 14:15:00,
2013-03-11 10:25:00,47.0,32.5,30.07,SE,136,1.0,5.0,57,0.00,,,0.00,Wunderground v.1.15,2013-03-11 14:25:00,
2013-03-11 10:30:00,47.4,32.5,30.08,SE,136,2.0,2.0,56,0.00,,,0.00,Wunderground v.1.15,2013-03-11 14:30:00,
2013-03-11 10:40:00,48.2,32.8,30.08,SE,134,1.0,2.0,55,0.00,,,0.00,Wunderground v.1.15,2013-03-11 14:40:00,
2013-03-11 10:45:00,48.7,32.8,30.08,ESE,115,1.0,2.0,54,0.00,,,0.00,Wunderground v.1.15,2013-03-11 14:45:00,
2013-03-11 10:55:00,49.2,33.3,30.07,SSE,148,2.0,2.0,54,0.00,,,0.00,Wunderground v.1.15,2013-03-11 14:55:00,
2013-03-11 11:00:00,49.7,33.2,30.07,SE,146,2.0,3.0,53,0.00,,,0.00,Wunderground v.1.15,2013-03-11 15:00:00,
2013-03-11 11:10:00,50.2,32.8,30.08,East,85,2.0,2.0,51,0.00,,,0.00,Wunderground v.1.15,2013-03-11 15:10:00,
2013-03-11 11:15:00,50.4,32.9,30.08,ENE,71,2.0,2.0,51,0.00,,,0.00,Wunderground v.1.15,2013-03-11 15:15:00,
2013-03-11 11:25:00,51.0,33.5,30.07,ESE,113,2.0,2.0,51,0.00,,,0.00,Wunderground v.1.15,2013-03-11 15:25:00,
2013-03-11 11:30:00,51.2,33.2,30.07,ESE,117,2.0,2.0,50,0.00,,,0.00,Wunderground v.1.15,2013-03-11 15:30:00,
2013-03-11 11:40:00,51.9,33.8,30.06,ENE,70,2.0,2.0,50,0.00,,,0.00,Wunderground v.1.15,2013-03-11 15:40:00,
2013-03-11 11:45:00,52.1,33.5,30.06,ENE,58,2.0,4.0,49,0.00,,,0.00,Wunderground v.1.15,2013-03-11 15:45:00,
2013-03-11 11:55:00,52.7,33.5,30.05,ENE,58,2.0,3.0,48,0.00,,,0.00,Wunderground v.1.15,2013-03-11 15:55:00,
2013-03-11 12:00:00,52.9,33.2,30.04,NE,44,2.0,3.0,47,0.00,,,0.00,Wunderground v.1.15,2013-03-11 16:00:00,
2013-03-11 12:10:00,53.2,32.9,30.04,SW,229,2.0,2.0,46,0.00,,,0.00,Wunderground v.1.15,2013-03-11 16:10:00,
2013-03-11 12:15:00,53.5,33.2,30.04,SSW,201,1.0,2.0,46,0.00,,,0.00,Wunderground v.1.15,2013-03-11 16:15:00,
2013-03-11 12:25:00,53.8,33.5,30.04,East,81,2.0,2.0,46,0.00,,,0.00,Wunderground v.1.15,2013-03-11 16:25:00,
2013-03-11 12:30:00,54.2,33.3,30.04,NNE,22,1.0,2.0,45,0.00,,,0.00,Wunderground v.1.15,2013-03-11 16:30:00,
2013-03-11 12:40:00,55.0,32.9,30.03,SSE,159,2.0,3.0,43,0.00,,,0.00,Wunderground v.1.15,2013-03-11 16:40:00,
2013-03-11 12:45:00,55.4,32.1,30.03,East,87,2.0,3.0,41,0.00,,,0.00,Wunderground v.1.15,2013-03-11 16:45:00,
2013-03-11 12:55:00,55.9,30.6,30.02,East,86,2.0,4.0,38,0.00,,,0.00,Wunderground v.1.15,2013-03-11 16:55:00,
2013-03-11 13:00:00,56.1,30.8,30.02,ENE,73,2.0,5.0,38,0.00,,,0.00,Wunderground v.1.15,2013-03-11 17:00:00,
2013-03-11 13:10:00,56.4,31.1,30.02,SE,134,3.0,4.0,38,0.00,,,0.00,Wunderground v.1.15,2013-03-11 17:10:00,
2013-03-11 13:20:00,56.9,28.8,30.01,West,281,3.0,4.0,34,0.00,,,0.00,Wunderground v.1.15,2013-03-11 17:20:00,
2013-03-11 13:25:00,57.2,28.3,30.01,ESE,105,2.0,4.0,33,0.00,,,0.00,Wunderground v.1.15,2013-03-11 17:25:00,
2013-03-11 13:35:00,57.5,28.6,30.01,SSE,159,3.0,3.0,33,0.00,,,0.00,Wunderground v.1.15,2013-03-11 17:35:00,
2013-03-11 13:40:00,57.8,28.9,30.00,SSE,150,3.0,3.0,33,0.00,,,0.00,Wunderground v.1.15,2013-03-11 17:40:00,
2013-03-11 13:50:00,57.9,29.7,29.99,South,184,3.0,4.0,34,0.00,,,0.00,Wunderground v.1.15,2013-03-11 17:50:00,
2013-03-11 14:00:00,58.1,29.8,29.99,SE,125,3.0,3.0,34,0.00,,,0.00,Wunderground v.1.15,2013-03-11 18:00:00,
2013-03-11 14:10:00,58.9,31.3,29.98,ESE,122,3.0,3.0,35,0.00,,,0.00,Wunderground v.1.15,2013-03-11 18:10:00,
2013-03-11 14:20:00,59.7,33.4,29.97,SSW,195,3.0,3.0,37,0.00,,,0.00,Wunderground v.1.15,2013-03-11 18:20:00,
2013-03-11 14:30:00,60.1,34.4,29.97,SE,131,4.0,4.0,38,0.00,,,0.00,Wunderground v.1.15,2013-03-11 18:30:00,
2013-03-11 14:35:00,60.3,34.6,29.96,WSW,242,4.0,4.0,38,0.00,,,0.00,Wunderground v.1.15,2013-03-11 18:35:00,
2013-03-11 14:45:00,60.2,35.1,29.96,East,89,4.0,4.0,39,0.00,,,0.00,Wunderground v.1.15,2013-03-11 18:45:00,
2013-03-11 14:50:00,60.0,35.0,29.96,South,186,4.0,4.0,39,0.00,,,0.00,Wunderground v.1.15,2013-03-11 18:50:00,
2013-03-11 15:00:00,59.7,35.9,29.96,SSE,155,4.0,6.0,41,0.00,,,0.00,Wunderground v.1.15,2013-03-11 19:00:00,
2013-03-11 15:10:00,59.4,36.3,29.96,WSW,250,4.0,4.0,42,0.00,,,0.00,Wunderground v.1.15,2013-03-11 19:10:00,
2013-03-11 15:15:00,59.3,36.2,29.96,SE,146,3.0,4.0,42,0.00,,,0.00,Wunderground v.1.15,2013-03-11 19:15:00,
2013-03-11 15:20:00,59.2,35.5,29.95,SSW,201,3.0,5.0,41,0.00,,,0.00,Wunderground v.1.15,2013-03-11 19:20:00,
2013-03-11 15:30:00,58.9,34.6,29.96,West,259,5.0,5.0,40,0.00,,,0.00,Wunderground v.1.15,2013-03-11 19:30:00,
2013-03-11 15:35:00,58.8,33.9,29.96,West,264,4.0,5.0,39,0.00,,,0.00,Wunderground v.1.15,2013-03-11 19:35:00,
2013-03-11 15:45:00,58.7,33.8,29.96,South,172,3.0,6.0,39,0.00,,,0.00,Wunderground v.1.15,2013-03-11 19:45:00,
2013-03-11 15:50:00,58.6,34.3,29.96,SSE,153,3.0,7.0,40,0.00,,,0.00,Wunderground v.1.15,2013-03-11 19:50:00,
2013-03-11 16:00:00,58.3,34.1,29.95,SSE,158,3.0,3.0,40,0.00,,,0.00,Wunderground v.1.15,2013-03-11 20:00:00,
2013-03-11 16:10:00,58.2,34.0,29.95,SSE,153,2.0,2.0,40,0.00,,,0.00,Wunderground v.1.15,2013-03-11 20:10:00,
2013-03-11 16:15:00,58.1,33.9,29.94,SSE,156,2.0,2.0,40,0.00,,,0.00,Wunderground v.1.15,2013-03-11 20:15:00,
2013-03-11 16:20:00,58.0,33.8,29.94,ESE,103,2.0,2.0,40,0.00,,,0.00,Wunderground v.1.15,2013-03-11 20:20:00,
2013-03-11 16:30:00,57.6,34.1,29.93,NNE,22,2.0,2.0,41,0.00,,,0.00,Wunderground v.1.15,2013-03-11 20:30:00,
2013-03-11 16:35:00,57.4,33.3,29.93,ENE,69,2.0,3.0,40,0.00,,,0.00,Wunderground v.1.15,2013-03-11 20:35:00,
2013-03-11 16:45:00,56.9,37.4,29.93,WNW,287,2.0,5.0,48,0.00,,,0.00,Wunderground v.1.15,2013-03-11 20:45:00,
2013-03-11 16:50:00,56.8,35.7,29.93,East,95,3.0,3.0,45,0.00,,,0.00,Wunderground v.1.15,2013-03-11 20:50:00,
2013-03-11 17:00:00,56.3,35.2,29.92,East,94,2.0,2.0,45,0.00,,,0.00,Wunderground v.1.15,2013-03-11 21:00:00,
2013-03-11 17:10:00,55.9,35.9,29.92,ESE,123,2.0,2.0,47,0.00,,,0.00,Wunderground v.1.15,2013-03-11 21:10:00,
2013-03-11 17:20:00,55.8,36.9,29.93,SSE,156,1.0,1.0,49,0.00,,,0.00,Wunderground v.1.15,2013-03-11 21:20:00,
2013-03-11 17:25:00,55.7,37.3,29.94,South,186,1.0,2.0,50,0.00,,,0.00,Wunderground v.1.15,2013-03-11 21:25:00,
2013-03-11 17:35:00,55.7,37.8,29.93,ESE,120,2.0,4.0,51,0.00,,,0.00,Wunderground v.1.15,2013-03-11 21:35:00,
2013-03-11 17:45:00,55.6,38.2,29.94,SE,135,1.0,3.0,52,0.00,,,0.00,Wunderground v.1.15,2013-03-11 21:45:00,
2013-03-11 17:50:00,55.5,38.1,29.94,SE,142,1.0,1.0,52,0.00,,,0.00,Wunderground v.1.15,2013-03-11 21:50:00,
2013-03-11 18:00:00,55.4,38.5,29.95,SW,228,0.0,0.0,53,0.00,,,0.00,Wunderground v.1.15,2013-03-11 22:00:00,
2013-03-11 18:10:00,55.3,38.9,29.94,SSW,194,0.0,0.0,54,0.00,,,0.00,Wunderground v.1.15,2013-03-11 22:10:00,
2013-03-11 18:15:00,55.3,39.4,29.95,ENE,71,0.0,1.0,55,0.00,,,0.00,Wunderground v.1.15,2013-03-11 22:15:00,
2013-03-11 18:20:00,55.1,39.7,29.94,SSE,156,1.0,1.0,56,0.00,,,0.00,Wunderground v.1.15,2013-03-11 22:20:00,
2013-03-11 18:30:00,55.1,40.6,29.93,NE,49,1.0,1.0,58,0.00,,,0.00,Wunderground v.1.15,2013-03-11 22:30:00,
2013-03-11 18:35:00,55.1,41.9,29.92,NE,52,1.0,2.0,61,0.00,,,0.00,Wunderground v.1.15,2013-03-11 22:35:00,
2013-03-11 18:45:00,55.3,42.1,29.93,SSW,208,1.0,1.0,61,0.00,,,0.00,Wunderground v.1.15,2013-03-11 22:45:00,
2013-03-11 18:50:00,55.3,42.1,29.93,SE,131,1.0,1.0,61,0.00,,,0.00,Wunderground v.1.15,2013-03-11 22:50:00,
2013-03-11 18:55:00,55.3,42.1,29.93,ESE,120,1.0,1.0,61,0.00,,,0.00,Wunderground v.1.15,2013-03-11 22:55:00,
2013-03-11 19:05:00,55.2,42.8,29.93,West,271,1.0,1.0,63,0.00,,,0.00,Wunderground v.1.15,2013-03-11 23:05:00,
2013-03-11 19:15:00,55.1,43.1,29.94,ESE,108,1.0,1.0,64,0.00,,,0.00,Wunderground v.1.15,2013-03-11 23:15:00,
2013-03-11 19:20:00,55.1,43.5,29.93,East,92,1.0,1.0,65,0.00,,,0.00,Wunderground v.1.15,2013-03-11 23:20:00,
2013-03-11 19:25:00,55.0,43.8,29.93,South,186,1.0,1.0,66,0.00,,,0.00,Wunderground v.1.15,2013-03-11 23:25:00,
2013-03-11 19:35:00,55.0,44.2,29.94,ENE,63,1.0,1.0,67,0.00,,,0.00,Wunderground v.1.15,2013-03-11 23:35:00,
2013-03-11 19:40:00,54.8,44.0,29.94,North,3,1.0,1.0,67,0.00,,,0.00,Wunderground v.1.15,2013-03-11 23:40:00,
2013-03-11 19:50:00,54.9,44.9,29.93,ESE,105,2.0,2.0,69,0.00,,,0.00,Wunderground v.1.15,2013-03-11 23:50:00,
2013-03-11 20:00:00,54.8,44.8,29.93,SSE,149,1.0,1.0,69,0.00,,,0.00,Wunderground v.1.15,2013-03-12 00:00:00,
2013-03-11 20:10:00,54.9,45.3,29.91,ENE,66,2.0,11.0,70,0.00,,,0.00,Wunderground v.1.15,2013-03-12 00:10:00,
2013-03-11 20:20:00,54.8,45.6,29.91,NE,49,2.0,2.0,71,0.00,,,0.00,Wunderground v.1.15,2013-03-12 00:20:00,
2013-03-11 20:30:00,54.6,45.8,29.91,NE,38,1.0,1.0,72,0.00,,,0.00,Wunderground v.1.15,2013-03-12 00:30:00,
2013-03-11 20:35:00,54.5,45.7,29.91,North,356,1.0,1.0,72,0.00,,,0.00,Wunderground v.1.15,2013-03-12 00:35:00,
2013-03-11 20:40:00,54.5,46.0,29.92,ENE,72,1.0,1.0,73,0.00,,,0.00,Wunderground v.1.15,2013-03-12 00:40:00,
2013-03-11 20:50:00,54.5,46.0,29.91,SE,138,1.0,1.0,73,0.00,,,0.00,Wunderground v.1.15,2013-03-12 00:50:00,
2013-03-11 20:55:00,54.6,46.1,29.91,SSW,211,1.0,1.0,73,0.00,,,0.00,Wunderground v.1.15,2013-03-12 00:55:00,
2013-03-11 21:00:00,54.6,46.1,29.91,WNW,290,2.0,2.0,73,0.00,,,0.00,Wunderground v.1.15,2013-03-12 01:00:00,
2013-03-11 21:10:00,54.6,46.1,29.90,South,169,2.0,2.0,73,0.00,,,0.00,Wunderground v.1.15,2013-03-12 01:10:00,
2013-03-11 21:20:00,54.4,46.3,29.91,ENE,72,1.0,1.0,74,0.00,,,0.00,Wunderground v.1.15,2013-03-12 01:20:00,
2013-03-11 21:25:00,54.4,46.3,29.91,West,264,1.0,1.0,74,0.00,,,0.00,Wunderground v.1.15,2013-03-12 01:25:00,
2013-03-11 21:30:00,54.3,46.2,29.90,SW,216,2.0,2.0,74,0.00,,,0.00,Wunderground v.1.15,2013-03-12 01:30:00,
2013-03-11 21:40:00,54.3,46.5,29.90,NNE,18,1.0,3.0,75,0.00,,,0.00,Wunderground v.1.15,2013-03-12 01:40:00,
2013-03-11 21:50:00,54.0,46.3,29.89,SSE,158,1.0,4.0,75,0.00,,,0.00,Wunderground v.1.15,2013-03-12 01:50:00,
2013-03-11 21:55:00,54.1,46.3,29.89,SW,235,1.0,4.0,75,0.00,,,0.00,Wunderground v.1.15,2013-03-12 01:55:00,
2013-03-11 22:00:00,54.0,46.6,29.89,East,84,1.0,2.0,76,0.00,,,0.00,Wunderground v.1.15,2013-03-12 02:00:00,
2013-03-11 22:10:00,54.4,46.6,29.88,NW,325,2.0,2.0,75,0.00,,,0.00,Wunderground v.1.15,2013-03-12 02:10:00,
2013-03-11 22:20:00,54.5,46.7,29.88,NW,315,3.0,3.0,75,0.00,,,0.00,Wunderground v.1.15,2013-03-12 02:20:00,
2013-03-11 22:25:00,54.5,47.1,29.88,ESE,102,3.0,4.0,76,0.00,,,0.00,Wunderground v.1.15,2013-03-12 02:25:00,
2013-03-11 22:35:00,54.5,47.1,29.86,East,96,3.0,3.0,76,0.00,,,0.00,Wunderground v.1.15,2013-03-12 02:35:00,
2013-03-11 22:40:00,54.4,47.0,29.86,North,358,1.0,2.0,76,0.00,,,0.00,Wunderground v.1.15,2013-03-12 02:40:00,
2013-03-11 22:50:00,54.1,47.0,29.86,SSE,149,2.0,3.0,77,0.00,,,0.00,Wunderground v.1.15,2013-03-12 02:50:00,
2013-03-11 22:55:00,54.2,46.8,29.85,South,174,3.0,4.0,76,0.00,,,0.00,Wunderground v.1.15,2013-03-12 02:55:00,
2013-03-11 23:00:00,54.2,46.8,29.85,SSE,156,3.0,3.0,76,0.00,,,0.00,Wunderground v.1.15,2013-03-12 03:00:00,
2013-03-11 23:10:00,54.3,46.9,29.85,ENE,72,2.0,2.0,76,0.00,,,0.00,Wunderground v.1.15,2013-03-12 03:10:00,
2013-03-11 23:15:00,54.5,47.1,29.84,West,260,2.0,2.0,76,0.00,,,0.00,Wunderground v.1.15,2013-03-12 03:15:00,
2013-03-11 23:20:00,54.5,47.1,29.84,East,90,1.0,3.0,76,0.00,,,0.00,Wunderground v.1.15,2013-03-12 03:20:00,
2013-03-11 23:30:00,54.6,47.2,29.83,SW,231,2.0,2.0,76,0.00,,,0.00,Wunderground v.1.15,2013-03-12 03:30:00,
2013-03-11 23:40:00,54.5,47.1,29.83,NE,47,2.0,2.0,76,0.00,,,0.00,Wunderground v.1.15,2013-03-12 03:40:00,
2013-03-11 23:45:00,54.6,47.2,29.84,SSW,198,2.0,2.0,76,0.00,,,0.00,Wunderground v.1.15,2013-03-12 03:45:00,
2013-03-11 23:55:00,54.8,47.4,29.84,SSE,151,2.0,3.0,76,0.00,,,0.00,Wunderground v.1.15,2013-03-12 03:55:00,